CheckWX is a tool to help pilots better visualize weather data.  It is not intended as a substitute for an official pre-flight weather briefing.

05:38:07 UTC

KFVE METAR
Northern Aroostook Regional Airport
Frenchville, Maine, USA
Current

45 mins ago

KFVE 240453Z AUTO 33004KT 10SM CLR M08/M12 A3025 RMK AO2 SLPNO T10781122 410221150
Observed
Feb-24 @ 04:53 UTC
Wind
  • 330° at 4 KTS
Visibility
10 SM
Flight Rules
VFR
Cloud Levels
  • Clear skies
Temperature
-8°C / 18°F
Dewpoint
-12°C / 10°F
Humidity
73%
Altimeter
30.25" Hg
Pressure
1024.42 hPa
Previous

2 hours ago

KFVE 240353Z AUTO 28007KT 10SM CLR M07/M13 A3026 RMK AO2 SLP264 T10671128
Observed
Feb-24 @ 03:53 UTC
Wind
  • 280° at 7 KTS
Visibility
10 SM
Flight Rules
VFR
Cloud Levels
  • Clear skies
Temperature
-7°C / 19°F
Dewpoint
-13°C / 9°F
Humidity
63%
Altimeter
30.26" Hg
Pressure
1026.4 hPa
Previous

3 hours ago

KFVE 240253Z AUTO 29006KT 10SM CLR M06/M12 A3025 RMK AO2 SLP259 T10561122 56001
Observed
Feb-24 @ 02:53 UTC
Wind
  • 290° at 6 KTS
Visibility
10 SM
Flight Rules
VFR
Cloud Levels
  • Clear skies
Temperature
-6°C / 21°F
Dewpoint
-12°C / 10°F
Humidity
63%
Altimeter
30.25" Hg
Pressure
1025.9 hPa